createdAt,value
2023-02-16T00:02:20.836Z,3.20
2023-02-16T00:05:27.758Z,2.85
2023-02-16T00:08:33.049Z,2.00
2023-02-16T00:11:53.366Z,1.88
2023-02-16T00:14:58.516Z,2.83
2023-02-16T00:18:06.138Z,1.98
2023-02-16T00:21:11.712Z,4.78
2023-02-16T00:24:17.091Z,2.38
2023-02-16T00:27:25.544Z,3.03
2023-02-16T00:30:30.978Z,3.78
2023-02-16T00:33:36.617Z,1.98
2023-02-16T00:36:42.162Z,2.60
2023-02-16T00:39:48.402Z,3.70
2023-02-16T00:42:57.649Z,1.30
2023-02-16T00:46:02.969Z,1.77
2023-02-16T00:49:08.301Z,2.08
2023-02-16T00:52:22.560Z,2.13
2023-02-16T00:55:28.659Z,3.58
2023-02-16T00:58:36.827Z,2.75
2023-02-16T01:01:42.183Z,2.50
2023-02-16T01:04:47.878Z,2.85
2023-02-16T01:08:05.706Z,3.25
2023-02-16T01:11:13.075Z,1.50
2023-02-16T01:14:21.419Z,1.85
2023-02-16T01:17:27.760Z,4.07
2023-02-16T01:20:32.905Z,2.97
2023-02-16T01:23:38.394Z,3.80
2023-02-16T01:26:45.059Z,5.85
2023-02-16T01:29:55.632Z,2.58
2023-02-16T01:33:00.800Z,2.38
2023-02-16T01:36:07.936Z,4.10
2023-02-16T01:39:14.796Z,4.03
2023-02-16T01:42:31.360Z,2.13
2023-02-16T01:45:42.954Z,3.10
2023-02-16T01:48:48.018Z,4.30
2023-02-16T01:51:59.867Z,3.92
2023-02-16T01:55:07.602Z,4.30
2023-02-16T01:58:18.301Z,3.70
2023-02-16T02:01:38.339Z,5.22
2023-02-16T02:05:00.249Z,3.58
2023-02-16T02:08:21.309Z,6.53
2023-02-16T02:11:29.866Z,5.10
2023-02-16T02:14:39.201Z,2.63
2023-02-16T02:17:45.441Z,4.72
2023-02-16T02:21:13.145Z,6.15
2023-02-16T02:24:40.244Z,4.50
2023-02-16T02:27:51.201Z,3.75
2023-02-16T02:30:58.337Z,3.42
2023-02-16T02:34:07.616Z,3.72
2023-02-16T02:37:15.045Z,4.05
2023-02-16T02:40:24.955Z,4.88
2023-02-16T02:43:36.346Z,3.78
2023-02-16T02:46:42.019Z,4.15
2023-02-16T02:49:52.691Z,4.97
2023-02-16T02:52:59.621Z,4.53
2023-02-16T02:56:18.326Z,2.83
2023-02-16T02:59:39.484Z,4.93
2023-02-16T03:02:45.804Z,7.45
2023-02-16T03:05:53.527Z,5.20
2023-02-16T03:09:00.899Z,6.55
2023-02-16T03:12:20.910Z,4.60
2023-02-16T03:15:29.307Z,5.47
2023-02-16T03:18:49.446Z,4.43
2023-02-16T03:22:07.298Z,3.67
2023-02-16T03:25:25.215Z,5.88
2023-02-16T03:28:45.369Z,4.15
2023-02-16T03:31:54.035Z,4.38
2023-02-16T03:34:59.855Z,3.22
2023-02-16T03:38:05.258Z,3.70
2023-02-16T03:41:11.357Z,3.47
2023-02-16T03:44:16.625Z,2.97
2023-02-16T03:47:24.951Z,4.38
2023-02-16T03:53:35.647Z,5.28
2023-02-16T03:56:41.018Z,3.28
2023-02-16T03:59:46.338Z,2.92
2023-02-16T04:02:54.226Z,2.40
2023-02-16T04:05:59.807Z,3.85
2023-02-16T04:09:05.169Z,4.40
2023-02-16T04:12:23.549Z,4.63
2023-02-16T04:15:30.471Z,5.47
2023-02-16T04:18:38.625Z,3.00
2023-02-16T04:21:46.947Z,5.78
2023-02-16T04:24:52.486Z,5.30
2023-02-16T04:27:58.541Z,2.92
2023-02-16T04:31:04.190Z,3.42
2023-02-16T04:34:09.997Z,5.40
2023-02-16T04:37:18.395Z,3.45
2023-02-16T04:43:29.049Z,3.42
2023-02-16T04:46:34.727Z,3.97
2023-02-16T04:49:40.068Z,2.65
2023-02-16T04:52:48.525Z,4.65
2023-02-16T04:55:54.512Z,4.70
2023-02-16T04:58:59.695Z,4.13
2023-02-16T05:02:04.917Z,4.53
2023-02-16T05:05:10.915Z,6.15
2023-02-16T05:08:20.810Z,3.80
2023-02-16T05:11:38.386Z,2.30
2023-02-16T05:14:47.713Z,4.68
2023-02-16T05:17:53.272Z,5.80
2023-02-16T05:21:11.526Z,4.30
2023-02-16T05:24:19.419Z,4.32
2023-02-16T05:27:25.799Z,5.20
2023-02-16T05:30:31.619Z,3.83
2023-02-16T05:33:37.301Z,6.28
2023-02-16T05:36:42.771Z,3.47
2023-02-16T05:39:53.271Z,5.45
2023-02-16T05:42:59.014Z,4.95
2023-02-16T05:46:10.241Z,3.78
2023-02-16T05:49:15.615Z,5.55
2023-02-16T05:52:21.208Z,4.53
2023-02-16T05:55:29.272Z,5.57
2023-02-16T05:58:34.917Z,5.22
2023-02-16T06:01:41.194Z,5.53
2023-02-16T06:04:46.798Z,4.25
2023-02-16T06:07:52.128Z,4.38
2023-02-16T06:11:00.635Z,5.97
2023-02-16T06:14:05.932Z,5.45
2023-02-16T06:17:11.764Z,7.05
2023-02-16T06:20:17.449Z,5.20
2023-02-16T06:23:22.673Z,5.38
2023-02-16T06:26:30.900Z,5.57
2023-02-16T06:29:36.083Z,5.13
2023-02-16T06:32:41.757Z,4.18
2023-02-16T06:35:47.041Z,3.50
2023-02-16T06:38:52.248Z,4.22
2023-02-16T06:42:00.449Z,4.20
2023-02-16T06:45:06.877Z,4.90
2023-02-16T06:48:12.747Z,4.72
2023-02-16T06:51:19.995Z,6.25
2023-02-16T06:54:25.829Z,7.18
2023-02-16T06:57:33.900Z,7.10
2023-02-16T07:00:39.214Z,3.78
2023-02-16T07:03:44.456Z,2.92
2023-02-16T07:06:49.777Z,5.80
2023-02-16T07:09:55.170Z,3.88
2023-02-16T07:13:03.199Z,3.53
2023-02-16T07:16:09.258Z,3.85
2023-02-16T07:19:15.053Z,5.35
2023-02-16T07:22:20.780Z,6.35
2023-02-16T07:25:26.623Z,5.47
2023-02-16T07:28:35.256Z,8.93
2023-02-16T07:31:41.124Z,4.13
2023-02-16T07:34:46.367Z,4.25
2023-02-16T07:37:51.787Z,4.28
2023-02-16T07:40:57.126Z,3.75
2023-02-16T07:44:05.671Z,4.03
2023-02-16T07:47:11.267Z,3.38
2023-02-16T07:50:17.046Z,4.25
2023-02-16T07:53:22.538Z,5.38
2023-02-16T07:56:28.507Z,3.67
2023-02-16T07:59:37.057Z,3.55
2023-02-16T08:05:47.532Z,5.10
2023-02-16T08:08:53.128Z,7.90
2023-02-16T08:11:58.411Z,8.23
2023-02-16T08:15:06.445Z,5.60
2023-02-16T08:21:18.631Z,5.72
2023-02-16T08:24:25.199Z,9.30
2023-02-16T08:27:31.004Z,5.55
2023-02-16T08:30:38.929Z,4.35
2023-02-16T08:33:45.078Z,5.05
2023-02-16T08:36:56.610Z,4.82
2023-02-16T08:40:03.312Z,29.25
2023-02-16T08:43:08.891Z,5.88
2023-02-16T08:46:16.923Z,6.63
2023-02-16T08:49:24.451Z,4.07
2023-02-16T08:52:30.082Z,4.95
2023-02-16T08:55:35.931Z,7.47
2023-02-16T08:58:41.345Z,5.60
2023-02-16T09:01:49.521Z,5.53
2023-02-16T09:04:54.973Z,6.88
2023-02-16T09:08:00.550Z,2.85
2023-02-16T09:11:06.078Z,5.70
2023-02-16T09:14:12.344Z,4.30
2023-02-16T09:17:20.869Z,5.38
2023-02-16T09:23:34.306Z,2.65
2023-02-16T09:26:43.086Z,4.75
2023-02-16T09:29:50.166Z,4.50
2023-02-16T09:32:58.218Z,6.50
2023-02-16T09:36:04.040Z,5.45
2023-02-16T09:39:09.673Z,3.47
2023-02-16T09:42:21.065Z,5.50
2023-02-16T09:45:28.182Z,5.00
2023-02-16T09:48:38.694Z,3.55
2023-02-16T09:51:45.421Z,4.57
2023-02-16T09:54:52.428Z,2.45
2023-02-16T09:58:01.526Z,2.97
2023-02-16T10:01:11.255Z,3.38
2023-02-16T10:04:34.347Z,3.00
2023-02-16T10:07:43.989Z,3.15
2023-02-16T10:10:51.289Z,4.82
2023-02-16T10:13:59.293Z,3.50
2023-02-16T10:17:08.264Z,2.58
2023-02-16T10:20:19.313Z,3.05
2023-02-16T10:23:33.395Z,4.80
2023-02-16T10:26:40.912Z,3.63
2023-02-16T10:29:46.706Z,3.13
2023-02-16T10:32:59.184Z,5.05
2023-02-16T10:36:13.495Z,3.15
2023-02-16T10:39:23.427Z,3.42
2023-02-16T10:42:35.206Z,4.30
2023-02-16T10:45:45.285Z,4.95
2023-02-16T10:48:51.787Z,3.67
2023-02-16T10:52:00.123Z,4.55
2023-02-16T10:58:20.757Z,5.25
2023-02-16T11:01:35.002Z,7.78
2023-02-16T11:04:41.824Z,6.03
2023-02-16T11:07:56.945Z,4.65
2023-02-16T11:11:11.150Z,3.50
2023-02-16T11:14:24.066Z,4.30
2023-02-16T11:17:29.856Z,4.32
2023-02-16T11:20:35.792Z,4.30
2023-02-16T11:23:45.807Z,4.07
2023-02-16T11:27:02.028Z,4.13
2023-02-16T11:30:22.889Z,2.42
2023-02-16T11:33:29.898Z,3.70
2023-02-16T11:36:36.560Z,3.33
2023-02-16T11:39:51.110Z,4.60
2023-02-16T11:42:57.839Z,4.05
2023-02-16T11:46:06.156Z,4.60
2023-02-16T11:49:24.979Z,5.63
2023-02-16T11:52:32.971Z,6.07
2023-02-16T11:55:43.381Z,3.65
2023-02-16T11:58:49.044Z,4.68
2023-02-16T12:02:09.183Z,4.47
2023-02-16T12:05:30.338Z,4.78
2023-02-16T12:08:40.424Z,2.85
2023-02-16T12:11:54.667Z,4.15
2023-02-16T12:15:05.448Z,5.15
2023-02-16T12:18:24.313Z,5.55
2023-02-16T12:21:37.846Z,5.15
2023-02-16T12:24:50.112Z,4.20
2023-02-16T12:28:01.933Z,4.22
2023-02-16T12:31:12.967Z,4.00
2023-02-16T12:34:22.538Z,3.70
2023-02-16T12:37:34.438Z,5.18
2023-02-16T12:40:54.482Z,6.50
2023-02-16T12:44:04.159Z,4.35
2023-02-16T12:47:13.903Z,4.55
2023-02-16T12:50:22.433Z,4.40
2023-02-16T12:53:30.731Z,3.80
2023-02-16T12:56:38.594Z,3.72
2023-02-16T12:59:49.328Z,6.70
2023-02-16T13:02:57.292Z,6.10
2023-02-16T13:06:09.101Z,6.00
2023-02-16T13:09:18.157Z,4.20
2023-02-16T13:12:28.456Z,4.70
2023-02-16T13:15:38.812Z,5.40
2023-02-16T13:18:45.315Z,5.20
2023-02-16T13:22:08.035Z,6.13
2023-02-16T13:25:26.170Z,5.88
2023-02-16T13:28:41.855Z,5.30
2023-02-16T13:31:59.423Z,7.30
2023-02-16T13:35:10.201Z,6.03
2023-02-16T13:38:28.096Z,7.47
2023-02-16T13:41:37.991Z,5.07
2023-02-16T13:44:44.903Z,7.18
2023-02-16T13:47:54.956Z,4.88
2023-02-16T13:51:04.880Z,4.50
2023-02-16T13:54:10.921Z,5.22
2023-02-16T13:57:18.896Z,7.15
2023-02-16T14:00:30.958Z,5.22
2023-02-16T14:03:42.485Z,7.22
2023-02-16T14:06:48.120Z,4.63
2023-02-16T14:09:53.484Z,5.35
2023-02-16T14:12:59.114Z,6.32
2023-02-16T14:16:08.428Z,3.97
2023-02-16T14:19:26.049Z,4.45
2023-02-16T14:22:35.681Z,5.07
2023-02-16T14:25:43.058Z,6.28
2023-02-16T14:29:03.442Z,7.53
2023-02-16T14:32:21.025Z,6.55
2023-02-16T14:35:32.397Z,12.53
2023-02-16T14:38:38.667Z,6.90
2023-02-16T14:41:44.440Z,6.95
2023-02-16T14:44:58.301Z,6.60
2023-02-16T14:48:11.375Z,8.18
2023-02-16T14:51:30.999Z,8.35
2023-02-16T14:54:57.800Z,7.53
2023-02-16T14:58:06.852Z,5.63
2023-02-16T15:01:16.542Z,7.75
2023-02-16T15:04:30.518Z,8.57
2023-02-16T15:07:39.547Z,5.90
2023-02-16T15:10:46.960Z,6.95
2023-02-16T15:13:54.847Z,7.47
2023-02-16T15:17:01.072Z,7.18
2023-02-16T15:20:11.362Z,6.85
2023-02-16T15:23:23.876Z,8.13
2023-02-16T15:26:30.128Z,7.55
2023-02-16T15:29:36.257Z,10.57
2023-02-16T15:32:42.204Z,7.40
2023-02-16T15:35:48.748Z,7.18
2023-02-16T15:39:04.418Z,11.40
2023-02-16T15:42:22.076Z,9.27
2023-02-16T15:45:29.666Z,8.57
2023-02-16T15:48:35.396Z,9.32
2023-02-16T15:51:41.461Z,11.35
2023-02-16T15:54:50.412Z,8.35
2023-02-16T15:57:57.409Z,8.98
2023-02-16T16:01:03.614Z,8.05
2023-02-16T16:04:11.397Z,10.95
2023-02-16T16:07:18.160Z,9.87
2023-02-16T16:10:29.130Z,9.77
2023-02-16T16:13:35.461Z,9.63
2023-02-16T16:16:40.972Z,9.48
2023-02-16T16:19:46.347Z,10.93
2023-02-16T16:22:58.128Z,11.00
2023-02-16T16:26:06.203Z,11.90
2023-02-16T16:29:26.330Z,10.68
2023-02-16T16:32:31.938Z,11.40
2023-02-16T16:35:39.213Z,13.27
2023-02-16T16:38:44.492Z,14.30
2023-02-16T16:42:10.214Z,17.67
2023-02-16T16:45:30.814Z,13.43
2023-02-16T16:48:39.519Z,13.82
2023-02-16T16:51:46.117Z,14.35
2023-02-16T16:54:52.000Z,14.93
2023-02-16T16:58:01.154Z,13.98
2023-02-16T17:01:06.505Z,13.95
2023-02-16T17:04:12.044Z,14.40
2023-02-16T17:07:17.626Z,12.57
2023-02-16T17:10:24.652Z,12.55
2023-02-16T17:13:32.782Z,10.30
2023-02-16T17:16:39.914Z,11.85
2023-02-16T17:19:45.169Z,12.45
2023-02-16T17:22:50.710Z,12.00
2023-02-16T17:25:55.968Z,11.63
2023-02-16T17:29:04.743Z,11.63
2023-02-16T17:32:10.178Z,14.10
2023-02-16T17:35:15.504Z,13.13
2023-02-16T17:38:22.236Z,13.98
2023-02-16T17:41:27.968Z,12.45
2023-02-16T17:44:36.281Z,12.02
2023-02-16T17:47:41.775Z,14.43
2023-02-16T17:50:47.385Z,9.98
2023-02-16T17:53:52.785Z,12.23
2023-02-16T17:56:58.567Z,12.98
2023-02-16T18:03:15.450Z,14.57
2023-02-16T18:06:21.223Z,13.10
2023-02-16T18:09:27.002Z,13.55
2023-02-16T18:12:32.341Z,14.23
2023-02-16T18:15:37.672Z,17.85
2023-02-16T18:18:45.832Z,14.70
2023-02-16T18:21:51.298Z,14.80
2023-02-16T18:24:56.950Z,18.90
2023-02-16T18:28:02.305Z,16.38
2023-02-16T18:31:08.988Z,17.65
2023-02-16T18:34:17.098Z,19.23
2023-02-16T18:37:22.640Z,17.35
2023-02-16T18:40:28.136Z,18.85
2023-02-16T18:43:36.214Z,20.17
2023-02-16T18:49:50.998Z,22.40
2023-02-16T18:52:56.605Z,19.95
2023-02-16T18:56:02.096Z,20.50
2023-02-16T18:59:07.230Z,19.65
2023-02-16T19:02:14.865Z,17.00
2023-02-16T19:05:22.943Z,14.20
2023-02-16T19:08:28.366Z,21.10
2023-02-16T19:11:34.014Z,15.82
2023-02-16T19:14:40.181Z,18.92
2023-02-16T19:17:45.520Z,18.35
2023-02-16T19:20:53.443Z,18.48
2023-02-16T19:27:04.339Z,17.48
2023-02-16T19:30:10.798Z,14.93
2023-02-16T19:33:16.229Z,19.60
2023-02-16T19:36:25.473Z,16.45
2023-02-16T19:39:30.764Z,16.58
2023-02-16T19:42:36.245Z,15.85
2023-02-16T19:45:42.864Z,15.48
2023-02-16T19:48:49.254Z,16.92
2023-02-16T19:51:57.304Z,17.52
2023-02-16T19:58:08.549Z,14.07
2023-02-16T20:01:16.055Z,17.65
2023-02-16T20:04:21.611Z,19.67
2023-02-16T20:07:29.751Z,13.65
2023-02-16T20:13:40.657Z,17.77
2023-02-16T20:16:46.423Z,20.08
2023-02-16T20:19:52.010Z,19.92
2023-02-16T20:23:00.186Z,18.88
2023-02-16T20:26:09.152Z,19.77
2023-02-16T20:29:16.480Z,19.25
2023-02-16T20:32:22.169Z,18.52
2023-02-16T20:35:27.516Z,22.85
2023-02-16T20:38:35.947Z,19.55
2023-02-16T20:41:41.605Z,20.20
2023-02-16T20:44:46.831Z,19.20
2023-02-16T20:47:52.329Z,20.52
2023-02-16T20:50:58.449Z,19.17
2023-02-16T20:54:07.019Z,19.27
2023-02-16T20:57:25.680Z,20.67
2023-02-16T21:00:32.155Z,20.42
2023-02-16T21:03:37.580Z,21.05
2023-02-16T21:06:43.649Z,22.45
2023-02-16T21:09:51.778Z,18.75
2023-02-16T21:12:57.513Z,21.90
2023-02-16T21:16:02.716Z,20.77
2023-02-16T21:19:20.906Z,19.83
2023-02-16T21:22:28.054Z,20.67
2023-02-16T21:25:36.565Z,21.95
2023-02-16T21:28:42.213Z,19.73
2023-02-16T21:31:48.297Z,19.23
2023-02-16T21:34:53.659Z,19.73
2023-02-16T21:37:59.310Z,21.35
2023-02-16T21:41:23.865Z,19.48
2023-02-16T21:44:29.427Z,20.85
2023-02-16T21:47:47.017Z,21.08
2023-02-16T21:50:52.371Z,17.60
2023-02-16T21:53:58.111Z,20.75
2023-02-16T21:57:03.812Z,19.77
2023-02-16T22:00:11.390Z,21.98
2023-02-16T22:03:17.110Z,22.77
2023-02-16T22:06:22.708Z,16.85
2023-02-16T22:09:28.300Z,20.90
2023-02-16T22:12:36.279Z,20.75
2023-02-16T22:15:42.088Z,19.08
2023-02-16T22:18:47.833Z,16.23
2023-02-16T22:21:53.593Z,17.08
2023-02-16T22:24:58.938Z,17.92
2023-02-16T22:28:07.199Z,16.05
2023-02-16T22:34:19.456Z,21.15
2023-02-16T22:37:24.930Z,18.90
2023-02-16T22:40:30.406Z,17.23
2023-02-16T22:43:38.890Z,17.63
2023-02-16T22:46:44.230Z,16.58
2023-02-16T22:49:49.818Z,15.40
2023-02-16T22:52:55.963Z,15.32
2023-02-16T22:56:04.879Z,17.42
2023-02-16T22:59:13.969Z,18.35
2023-02-16T23:02:19.649Z,19.45
2023-02-16T23:05:25.467Z,17.95
2023-02-16T23:08:30.735Z,16.98
2023-02-16T23:11:37.056Z,16.77
2023-02-16T23:14:45.480Z,18.23
2023-02-16T23:17:51.008Z,15.52
2023-02-16T23:20:56.302Z,17.30
2023-02-16T23:24:02.054Z,17.35
2023-02-16T23:27:07.647Z,18.65
2023-02-16T23:30:16.190Z,19.20
2023-02-16T23:33:21.750Z,15.18
2023-02-16T23:36:27.203Z,17.45
2023-02-16T23:39:32.928Z,18.05
2023-02-16T23:42:38.368Z,16.20
2023-02-16T23:45:46.336Z,16.23
2023-02-16T23:48:51.739Z,15.95
2023-02-16T23:51:57.218Z,16.60
2023-02-16T23:55:02.895Z,15.93
2023-02-16T23:58:08.214Z,14.52
